Main page
METAR-TAF:

METAR-TAF

Airports :

Frederick Regional Airport

Frederick, Oklahoma, United States

latitude: 34-20-40N, longitude: 098-58-59W, elevation: 1253 ft

Current weather observation

The report was made 57 minutes ago, at 16:53 UTC
Wind 16 mph from the South/Southwest with gusts up to 23 mph
Temperature 90°F
Humidity 52%
Pressure 29.89 in. Hg
Visibility: 10 miles
Clear sky

METAR: KFDR 151653Z AUTO 20014G20KT 10SM CLR 32/21 A2989 RMK AO2 SLP102 T03170211

Time: 12:50 (17:50 UTC)


TAF: missing

Weather observations and forecasts of more than 4000 airports (METAR and TAF reports).

The available stations are represented by yellow and red dots on the map.

Hover mouse over dot to see the name of the station.

Then click to see weather observations and forecasts.

To change the map : click on the green buttons with a black cross to zoom in, on the green button with a dash to zoom out, or on the green arrows for adjacent maps.


METAR-TAF: